Time;durP1;ratioP1;P1;durP2;ratioP2;P2;SDS_P1;SDS_P2;PMS_P1;PMS_P2;Temp;Humidity;BMP_temperature;BMP_pressure;BME280_temperature;BME280_humidity;BME280_pressure;Samples;Min_cycle;Max_cycle;Signal;HPM_P1;HPM_P2
2023/06/15 00:01:35;;;;;;;11.18;6.35;;;13.90;99.90;;;;;;5117440;27;20216;-78
2023/06/15 00:04:02;;;;;;;8.38;6.07;;;13.70;99.90;;;;;;5082099;28;20242;-78
2023/06/15 00:06:30;;;;;;;8.60;6.00;;;13.70;99.90;;;;;;5077544;28;20246;-79
2023/06/15 00:08:57;;;;;;;10.70;5.97;;;13.80;99.90;;;;;;5066441;28;20202;-78
2023/06/15 00:11:23;;;;;;;9.10;5.63;;;13.50;99.90;;;;;;5106639;28;20253;-78
2023/06/15 00:13:50;;;;;;;8.88;5.80;;;13.00;99.90;;;;;;5094235;28;20212;-79
2023/06/15 00:16:18;;;;;;;8.03;6.10;;;12.80;99.90;;;;;;5096089;28;20199;-78
2023/06/15 00:18:47;;;;;;;10.77;6.23;;;12.80;99.90;;;;;;5046879;28;20196;-77
2023/06/15 00:21:15;;;;;;;10.02;6.45;;;12.80;99.90;;;;;;5059736;28;20984;-78
2023/06/15 00:23:45;;;;;;;11.50;6.60;;;12.90;99.90;;;;;;5096359;28;20223;-77
2023/06/15 00:26:12;;;;;;;10.80;6.73;;;13.10;99.90;;;;;;5096651;28;20227;-77
2023/06/15 00:28:39;;;;;;;12.40;6.30;;;13.10;99.90;;;;;;5084449;28;20210;-78
2023/06/15 00:31:06;;;;;;;11.00;6.17;;;12.60;99.90;;;;;;5110280;28;20200;-78
2023/06/15 00:33:32;;;;;;;8.63;5.80;;;12.50;99.90;;;;;;5086927;28;20230;-79
2023/06/15 00:35:59;;;;;;;9.70;6.70;;;12.70;99.90;;;;;;5067624;28;20201;-79
2023/06/15 00:38:26;;;;;;;12.67;7.07;;;13.00;99.90;;;;;;5062041;27;20214;-79
2023/06/15 00:40:54;;;;;;;8.87;6.63;;;13.30;99.90;;;;;;5096658;28;20200;-80
2023/06/15 00:43:21;;;;;;;9.90;6.30;;;13.30;99.90;;;;;;5094372;28;20220;-79
2023/06/15 00:45:48;;;;;;;8.93;6.27;;;13.40;99.90;;;;;;5082105;28;20298;-79
2023/06/15 00:48:15;;;;;;;9.80;5.83;;;13.50;99.90;;;;;;5095932;28;20212;-77
2023/06/15 00:50:43;;;;;;;10.13;6.70;;;13.60;99.90;;;;;;5122066;28;20197;-79
2023/06/15 00:53:10;;;;;;;12.00;6.93;;;13.70;99.90;;;;;;5019322;28;20209;-80
2023/06/15 00:55:38;;;;;;;7.87;6.17;;;13.70;99.90;;;;;;5048638;28;20199;-77
2023/06/15 00:58:07;;;;;;;8.35;5.75;;;13.80;99.90;;;;;;5096777;28;20230;-79
2023/06/15 01:00:37;;;;;;;9.50;5.80;;;13.50;99.90;;;;;;5047335;28;20207;-79
2023/06/15 01:03:06;;;;;;;9.47;6.23;;;13.40;99.90;;;;;;5129166;28;20664;-78
2023/06/15 01:05:34;;;;;;;7.82;5.93;;;13.20;99.90;;;;;;5053053;28;20239;-79
2023/06/15 01:08:04;;;;;;;7.80;6.10;;;13.20;99.90;;;;;;5081573;27;20290;-79
2023/06/15 01:10:33;;;;;;;7.80;6.20;;;13.00;99.90;;;;;;5092549;27;20210;-78
2023/06/15 01:13:03;;;;;;;9.05;5.97;;;13.10;99.90;;;;;;5100065;27;20569;-78
2023/06/15 01:15:31;;;;;;;12.23;6.93;;;12.90;99.90;;;;;;5092826;27;20567;-78
2023/06/15 01:18:02;;;;;;;10.53;6.57;;;12.70;99.90;;;;;;5085739;27;20561;-78
2023/06/15 01:20:38;;;;;;;9.07;6.57;;;12.80;99.90;;;;;;5056944;27;20207;-78
2023/06/15 01:23:19;;;;;;;11.30;6.50;;;12.80;99.90;;;;;;5067544;27;20215;-78
2023/06/15 01:25:59;;;;;;;12.60;7.00;;;12.90;99.90;;;;;;5058615;27;20643;-79
2023/06/15 01:28:29;;;;;;;10.27;6.70;;;13.00;99.90;;;;;;5094797;27;20212;-77
2023/06/15 01:30:57;;;;;;;7.50;6.10;;;13.00;99.90;;;;;;5085508;27;20203;-78
2023/06/15 01:33:25;;;;;;;8.00;5.90;;;13.00;99.90;;;;;;5088736;27;20227;-77
2023/06/15 01:35:52;;;;;;;12.30;6.33;;;12.90;99.90;;;;;;5082249;27;20208;-78
2023/06/15 01:38:22;;;;;;;10.50;6.63;;;12.90;99.90;;;;;;5134337;27;20200;-78
2023/06/15 01:40:51;;;;;;;7.97;6.33;;;12.70;99.90;;;;;;5099806;27;20208;-79
2023/06/15 01:43:22;;;;;;;10.30;6.43;;;12.60;99.90;;;;;;5044663;27;20607;-78
2023/06/15 01:45:50;;;;;;;8.97;5.97;;;12.50;99.90;;;;;;5010060;28;20692;-77
2023/06/15 01:48:18;;;;;;;10.20;6.63;;;12.50;99.90;;;;;;5041795;27;20208;-79
2023/06/15 01:50:46;;;;;;;11.77;6.30;;;12.80;99.90;;;;;;5050284;27;20205;-78
2023/06/15 01:53:12;;;;;;;9.33;6.27;;;12.70;99.90;;;;;;5048781;27;20212;-79
2023/06/15 01:55:39;;;;;;;9.67;6.10;;;12.70;99.90;;;;;;5024292;28;20199;-79
2023/06/15 01:58:07;;;;;;;9.83;6.57;;;12.90;99.90;;;;;;5052721;27;20678;-80
2023/06/15 02:00:36;;;;;;;9.20;6.63;;;13.00;99.90;;;;;;5041199;27;20212;-77
2023/06/15 02:03:03;;;;;;;9.60;6.53;;;12.90;99.90;;;;;;5064613;27;20214;-78
2023/06/15 02:05:30;;;;;;;7.50;5.73;;;12.90;99.90;;;;;;5126361;27;20196;-77
2023/06/15 02:07:57;;;;;;;9.93;6.20;;;13.00;99.90;;;;;;5132925;27;20209;-79
2023/06/15 02:10:24;;;;;;;10.40;6.53;;;13.00;99.90;;;;;;5096545;27;20660;-77
2023/06/15 02:12:50;;;;;;;10.70;6.47;;;12.90;99.90;;;;;;5099089;27;20709;-79
2023/06/15 02:15:17;;;;;;;10.40;5.97;;;12.80;99.90;;;;;;5094740;27;20224;-80
2023/06/15 02:17:46;;;;;;;10.40;6.03;;;12.80;99.90;;;;;;5056959;27;20203;-78
2023/06/15 02:20:13;;;;;;;8.90;6.30;;;12.70;99.90;;;;;;5099017;27;20232;-78
2023/06/15 02:22:39;;;;;;;8.70;6.00;;;12.70;99.90;;;;;;5086601;27;20199;-79
2023/06/15 02:25:07;;;;;;;10.40;5.80;;;12.60;99.90;;;;;;5084203;27;20777;-77
2023/06/15 02:27:34;;;;;;;9.97;5.50;;;12.50;99.90;;;;;;5092553;27;20224;-79
2023/06/15 02:30:01;;;;;;;9.47;6.40;;;12.50;99.90;;;;;;5098995;27;20192;-78
2023/06/15 02:32:34;;;;;;;11.20;6.20;;;12.60;99.90;;;;;;5096726;27;20199;-79
2023/06/15 02:35:04;;;;;;;6.47;5.77;;;12.50;99.90;;;;;;5067012;27;20226;-78
2023/06/15 02:37:31;;;;;;;11.40;6.37;;;12.40;99.90;;;;;;5119076;27;20212;-78
2023/06/15 02:39:58;;;;;;;8.57;5.60;;;12.20;99.90;;;;;;5084386;27;20209;-80
2023/06/15 02:42:25;;;;;;;7.20;5.87;;;12.10;99.90;;;;;;5083397;27;20288;-78
2023/06/15 02:44:52;;;;;;;8.00;6.20;;;12.20;99.90;;;;;;5079955;27;20227;-78
2023/06/15 02:47:19;;;;;;;9.37;5.97;;;12.20;99.90;;;;;;5114026;27;20759;-78
2023/06/15 02:49:46;;;;;;;9.17;6.37;;;12.20;99.90;;;;;;5117192;27;20298;-79
2023/06/15 02:52:14;;;;;;;9.93;6.40;;;12.10;99.90;;;;;;5082922;27;20598;-79
2023/06/15 02:54:41;;;;;;;9.10;6.17;;;12.00;99.90;;;;;;5096459;27;20714;-78
2023/06/15 02:57:08;;;;;;;8.23;6.20;;;12.00;99.90;;;;;;5100074;27;20224;-79
2023/06/15 02:59:36;;;;;;;8.47;6.70;;;12.00;99.90;;;;;;5097619;27;20207;-79
2023/06/15 03:02:04;;;;;;;8.60;6.53;;;12.10;99.90;;;;;;5098591;27;20204;-78
2023/06/15 03:04:32;;;;;;;8.07;6.10;;;12.10;99.90;;;;;;5097598;27;20303;-78
2023/06/15 03:06:59;;;;;;;9.73;6.20;;;12.00;99.90;;;;;;5097338;27;20590;-78
2023/06/15 03:09:27;;;;;;;8.27;6.07;;;12.00;99.90;;;;;;5092460;27;20204;-79
2023/06/15 03:11:54;;;;;;;10.57;6.50;;;12.00;99.90;;;;;;5082845;27;20618;-78
2023/06/15 03:14:21;;;;;;;8.00;5.93;;;12.20;99.90;;;;;;5084959;27;20223;-78
2023/06/15 03:16:48;;;;;;;9.10;5.97;;;12.20;99.90;;;;;;5080632;27;20279;-79
2023/06/15 03:19:16;;;;;;;9.37;6.20;;;12.20;99.90;;;;;;5083481;27;20203;-78
2023/06/15 03:21:43;;;;;;;9.73;5.03;;;12.30;99.90;;;;;;5092448;27;20211;-78
2023/06/15 03:24:10;;;;;;;10.20;5.33;;;12.10;99.90;;;;;;5102743;27;20306;-77
2023/06/15 03:26:40;;;;;;;10.63;5.40;;;11.60;99.90;;;;;;5125768;27;20230;-78
2023/06/15 03:29:07;;;;;;;11.43;5.63;;;11.60;99.90;;;;;;5061434;27;20673;-78
2023/06/15 03:31:40;;;;;;;7.70;5.23;;;11.80;99.90;;;;;;5083165;27;20286;-76
2023/06/15 03:34:07;;;;;;;9.97;5.83;;;12.10;99.90;;;;;;5112674;27;20224;-81
2023/06/15 03:36:35;;;;;;;8.33;6.73;;;12.40;99.90;;;;;;5097797;27;20238;-77
2023/06/15 03:39:02;;;;;;;7.97;5.63;;;12.50;99.90;;;;;;5072507;27;20207;-77
2023/06/15 03:41:30;;;;;;;11.27;6.43;;;12.40;99.90;;;;;;5117679;27;20207;-79
2023/06/15 03:43:58;;;;;;;12.03;6.47;;;12.40;99.90;;;;;;5083267;27;20250;-77
2023/06/15 03:46:25;;;;;;;9.73;6.47;;;12.50;99.90;;;;;;5064061;27;20226;-78
2023/06/15 03:48:51;;;;;;;8.20;6.17;;;12.70;99.90;;;;;;5097649;27;20199;-78
2023/06/15 03:51:18;;;;;;;10.30;6.30;;;12.80;99.90;;;;;;5058909;28;20294;-77
2023/06/15 03:53:45;;;;;;;8.47;5.80;;;12.70;99.90;;;;;;5045898;27;20227;-77
2023/06/15 03:56:12;;;;;;;8.33;6.07;;;12.70;99.90;;;;;;5051196;28;20228;-77
2023/06/15 03:58:39;;;;;;;8.93;5.83;;;12.90;99.90;;;;;;5084622;27;20208;-76
2023/06/15 04:01:07;;;;;;;8.33;5.87;;;12.80;99.90;;;;;;5097071;27;20638;-79
2023/06/15 04:03:35;;;;;;;9.53;7.13;;;13.00;99.90;;;;;;5063173;28;20594;-80
2023/06/15 04:06:05;;;;;;;8.10;6.03;;;13.20;99.90;;;;;;5097301;28;20325;-78
2023/06/15 04:08:32;;;;;;;11.23;6.70;;;13.30;99.90;;;;;;5079491;28;20249;-77
2023/06/15 04:10:59;;;;;;;9.17;6.17;;;13.50;99.90;;;;;;5082889;28;20568;-78
2023/06/15 04:13:26;;;;;;;9.27;6.37;;;13.90;99.90;;;;;;5121450;28;20227;-80
2023/06/15 04:15:53;;;;;;;9.43;5.90;;;14.90;99.90;;;;;;5096778;28;20206;-78
2023/06/15 04:18:22;;;;;;;8.90;5.73;;;15.90;99.90;;;;;;5096395;28;20210;-78
2023/06/15 04:20:49;;;;;;;9.97;6.07;;;16.60;99.90;;;;;;5082929;28;20625;-78
2023/06/15 04:23:16;;;;;;;8.55;5.72;;;16.90;99.90;;;;;;5116014;28;20280;-78
2023/06/15 04:25:43;;;;;;;8.55;5.70;;;16.10;99.90;;;;;;5053528;28;20279;-78
2023/06/15 04:28:11;;;;;;;7.28;6.03;;;15.30;99.90;;;;;;5097509;28;20687;-77
2023/06/15 04:30:40;;;;;;;7.55;5.78;;;14.90;99.90;;;;;;5085901;27;20200;-78
2023/06/15 04:33:07;;;;;;;7.97;5.85;;;14.60;99.90;;;;;;5082611;28;20297;-77
2023/06/15 04:35:35;;;;;;;8.68;6.28;;;14.40;99.90;;;;;;5082107;28;20625;-77
2023/06/15 04:38:04;;;;;;;9.73;6.47;;;14.50;99.90;;;;;;5047844;28;20605;-78
2023/06/15 04:40:32;;;;;;;8.00;6.32;;;14.30;99.90;;;;;;5089896;28;20231;-78
2023/06/15 04:42:59;;;;;;;8.98;6.28;;;14.40;99.90;;;;;;5097043;27;20203;-76
2023/06/15 04:45:25;;;;;;;9.43;6.80;;;14.40;99.90;;;;;;5095328;27;20261;-81
2023/06/15 04:47:53;;;;;;;12.95;7.03;;;14.30;99.90;;;;;;5086689;27;20283;-76
2023/06/15 04:50:21;;;;;;;10.98;7.07;;;14.40;99.90;;;;;;5086764;27;20291;-79
2023/06/15 04:52:49;;;;;;;8.02;6.40;;;14.10;99.90;;;;;;5100585;27;20200;-79
2023/06/15 04:55:16;;;;;;;9.55;6.72;;;14.30;99.90;;;;;;5101022;27;20223;-78
2023/06/15 04:57:44;;;;;;;8.80;6.30;;;14.40;99.90;;;;;;5086215;27;20191;-77
2023/06/15 05:00:13;;;;;;;10.37;6.70;;;14.50;99.90;;;;;;5086201;27;20620;-78
2023/06/15 05:02:40;;;;;;;11.70;6.73;;;14.70;99.90;;;;;;5098088;27;20201;-77
2023/06/15 05:05:08;;;;;;;10.27;6.20;;;14.80;99.90;;;;;;5100026;27;20224;-78
2023/06/15 05:07:34;;;;;;;11.07;6.03;;;14.60;99.90;;;;;;5099990;27;20219;-79
2023/06/15 05:10:03;;;;;;;10.38;6.85;;;14.60;99.90;;;;;;5100372;27;20196;-76
2023/06/15 05:12:30;;;;;;;10.43;6.60;;;14.60;99.90;;;;;;5099996;27;20210;-76
2023/06/15 05:14:57;;;;;;;11.82;7.57;;;14.50;99.90;;;;;;5112653;27;20301;-78
2023/06/15 05:17:24;;;;;;;10.97;7.67;;;14.90;99.90;;;;;;5085168;27;20199;-77
2023/06/15 05:19:51;;;;;;;9.27;6.93;;;15.00;99.90;;;;;;5085495;27;20199;-80
2023/06/15 05:22:18;;;;;;;11.88;7.43;;;14.90;99.90;;;;;;5084980;27;20287;-78
2023/06/15 05:24:44;;;;;;;11.98;7.63;;;15.00;99.90;;;;;;5049383;27;20216;-77
2023/06/15 05:27:13;;;;;;;9.77;6.97;;;15.20;99.90;;;;;;5099826;27;20220;-79
2023/06/15 05:29:40;;;;;;;10.13;6.97;;;15.40;99.90;;;;;;5087660;27;20252;-77
2023/06/15 05:32:08;;;;;;;9.85;6.97;;;15.60;99.90;;;;;;5085464;27;20268;-77
2023/06/15 05:34:35;;;;;;;8.43;6.55;;;15.40;99.90;;;;;;5085211;27;20219;-77
2023/06/15 05:37:02;;;;;;;10.85;7.25;;;15.80;99.90;;;;;;5085149;27;20192;-79
2023/06/15 05:39:29;;;;;;;10.60;6.47;;;17.70;99.90;;;;;;5090867;27;20205;-77
2023/06/15 05:41:55;;;;;;;9.32;6.47;;;18.70;99.90;;;;;;5099828;27;20206;-80
2023/06/15 05:44:23;;;;;;;9.32;6.20;;;19.20;99.90;;;;;;5097916;27;20572;-79
2023/06/15 05:46:52;;;;;;;9.27;6.65;;;18.20;99.90;;;;;;5102639;27;20212;-78
2023/06/15 05:49:19;;;;;;;8.30;6.28;;;17.60;99.90;;;;;;5099810;27;20295;-79
2023/06/15 05:51:46;;;;;;;7.68;6.32;;;17.30;99.90;;;;;;5034123;28;20208;-80
2023/06/15 05:54:13;;;;;;;10.13;6.85;;;17.50;99.90;;;;;;5084987;27;20309;-78
2023/06/15 05:56:40;;;;;;;9.88;6.72;;;17.20;99.90;;;;;;5119190;27;20283;-78
2023/06/15 05:59:08;;;;;;;8.82;6.13;;;17.10;99.90;;;;;;5085044;27;20208;-78
2023/06/15 06:01:36;;;;;;;8.57;6.60;;;16.60;99.90;;;;;;5119419;27;20728;-78
2023/06/15 06:04:03;;;;;;;9.55;6.00;;;16.80;99.90;;;;;;5084689;27;20234;-77
2023/06/15 06:06:30;;;;;;;8.75;6.63;;;17.10;99.90;;;;;;5087348;27;20270;-78
2023/06/15 06:08:56;;;;;;;8.73;4.93;;;16.90;99.90;;;;;;5041266;27;20232;-78
2023/06/15 06:11:23;;;;;;;8.82;5.35;;;17.10;99.90;;;;;;5030216;28;20353;-78
2023/06/15 06:13:50;;;;;;;8.52;5.15;;;17.40;99.90;;;;;;5029490;28;20693;-77
2023/06/15 06:16:17;;;;;;;10.60;4.93;;;17.60;99.90;;;;;;5032575;28;20299;-77
2023/06/15 06:18:45;;;;;;;7.95;4.97;;;17.70;99.90;;;;;;5042105;28;20208;-78
2023/06/15 06:21:12;;;;;;;9.02;5.32;;;17.70;99.90;;;;;;5024065;28;20208;-78
2023/06/15 06:23:40;;;;;;;8.23;5.32;;;17.90;99.90;;;;;;5030455;28;20247;-79
2023/06/15 06:26:07;;;;;;;13.88;5.13;;;17.90;99.90;;;;;;5021706;28;20212;-79
2023/06/15 06:28:34;;;;;;;9.27;4.50;;;18.00;99.90;;;;;;5021980;28;20269;-77
2023/06/15 06:31:00;;;;;;;10.77;5.00;;;17.90;99.90;;;;;;5020873;28;20204;-79
2023/06/15 06:33:27;;;;;;;12.45;4.70;;;18.10;99.90;;;;;;5021457;28;20281;-78
2023/06/15 06:35:55;;;;;;;11.65;5.07;;;18.20;99.90;;;;;;5020663;28;20219;-77
2023/06/15 06:38:22;;;;;;;9.23;5.00;;;18.20;99.90;;;;;;5020583;28;20205;-77
2023/06/15 06:40:49;;;;;;;14.35;4.90;;;18.30;99.90;;;;;;5021365;28;20571;-78
2023/06/15 06:43:16;;;;;;;15.35;5.30;;;18.20;99.90;;;;;;5020522;28;20205;-79
2023/06/15 06:45:43;;;;;;;7.28;4.55;;;18.30;99.90;;;;;;5021129;28;20268;-78
2023/06/15 06:48:10;;;;;;;9.88;4.65;;;18.40;99.90;;;;;;5022009;28;20224;-78
2023/06/15 06:50:36;;;;;;;8.57;4.40;;;18.40;99.90;;;;;;5022065;28;20205;-77
2023/06/15 06:53:05;;;;;;;10.88;4.53;;;18.30;99.90;;;;;;5021800;28;20287;-79
2023/06/15 06:55:32;;;;;;;9.60;5.00;;;18.50;99.90;;;;;;5022511;28;20223;-79
2023/06/15 06:58:00;;;;;;;6.00;4.40;;;18.40;99.90;;;;;;5022159;28;20223;-78
2023/06/15 07:00:27;;;;;;;11.90;5.03;;;18.30;99.90;;;;;;5022486;28;20238;-79
2023/06/15 07:02:54;;;;;;;10.82;4.85;;;18.40;99.90;;;;;;5023287;28;20219;-79
2023/06/15 07:05:21;;;;;;;15.10;4.63;;;18.40;99.90;;;;;;5022399;28;20311;-78
2023/06/15 07:07:48;;;;;;;12.48;4.93;;;18.50;99.90;;;;;;5021666;28;20284;-79
2023/06/15 07:10:16;;;;;;;12.63;4.82;;;18.50;99.90;;;;;;5022118;28;20283;-77
2023/06/15 07:12:43;;;;;;;10.95;5.13;;;18.50;99.90;;;;;;5021828;28;20200;-78
2023/06/15 07:15:11;;;;;;;6.78;4.60;;;18.80;99.90;;;;;;5021567;28;20259;-79
2023/06/15 07:17:38;;;;;;;10.32;4.53;;;18.70;99.90;;;;;;5022176;28;20211;-77
2023/06/15 07:20:06;;;;;;;9.48;4.20;;;18.70;99.90;;;;;;5022653;28;20300;-79
2023/06/15 07:22:33;;;;;;;8.55;4.53;;;18.70;99.90;;;;;;5023079;28;20207;-79
2023/06/15 07:25:00;;;;;;;8.95;4.55;;;19.00;99.90;;;;;;5021369;28;20235;-79
2023/06/15 07:27:28;;;;;;;9.90;4.10;;;18.90;99.90;;;;;;5021993;28;20220;-79
2023/06/15 07:29:55;;;;;;;7.05;3.85;;;18.90;99.90;;;;;;5022517;28;20208;-79
2023/06/15 07:32:22;;;;;;;5.32;4.10;;;19.20;99.90;;;;;;5021814;28;20254;-77
2023/06/15 07:34:49;;;;;;;6.70;4.05;;;19.40;99.90;;;;;;5022899;28;20603;-78
2023/06/15 07:37:16;;;;;;;5.78;4.32;;;19.30;99.90;;;;;;5021712;28;20193;-79
2023/06/15 07:39:43;;;;;;;7.22;3.95;;;19.40;99.90;;;;;;5019928;28;20204;-78
2023/06/15 07:42:10;;;;;;;5.57;4.00;;;19.50;99.90;;;;;;5022756;28;20200;-77
2023/06/15 07:44:38;;;;;;;8.25;4.40;;;19.50;99.90;;;;;;5020741;28;20228;-77
2023/06/15 07:47:06;;;;;;;10.25;4.88;;;19.50;99.90;;;;;;5022120;28;20620;-78
2023/06/15 07:49:33;;;;;;;10.43;4.40;;;19.40;99.90;;;;;;5022054;28;20234;-77
2023/06/15 07:52:00;;;;;;;6.95;3.85;;;19.60;99.90;;;;;;5021627;28;20759;-78
2023/06/15 07:54:27;;;;;;;7.30;3.63;;;19.70;99.90;;;;;;5021911;28;20234;-78
2023/06/15 07:56:54;;;;;;;9.65;4.10;;;19.60;99.90;;;;;;5021633;28;20224;-78
2023/06/15 07:59:20;;;;;;;8.05;4.20;;;19.60;99.90;;;;;;5021166;28;20196;-78
2023/06/15 08:01:48;;;;;;;7.65;4.30;;;19.80;99.90;;;;;;5022376;28;20226;-77
2023/06/15 08:04:16;;;;;;;11.48;4.00;;;19.90;61.30;;;;;;5021125;28;20704;-78
2023/06/15 08:06:43;;;;;;;5.57;3.90;;;19.80;90.70;;;;;;5020943;28;20220;-79
2023/06/15 08:09:11;;;;;;;7.10;3.63;;;19.90;99.90;;;;;;5021442;28;20311;-78
2023/06/15 08:11:38;;;;;;;7.85;4.18;;;20.00;45.90;;;;;;5021308;28;20257;-79
2023/06/15 08:14:05;;;;;;;4.93;3.67;;;20.10;1.00;;;;;;5021376;28;20254;-78
2023/06/15 08:16:32;;;;;;;6.28;3.55;;;20.20;99.90;;;;;;5020501;28;20684;-78
2023/06/15 08:19:00;;;;;;;6.75;3.80;;;20.30;1.00;;;;;;5021747;28;20687;-79
2023/06/15 08:21:27;;;;;;;5.60;3.90;;;20.30;1.00;;;;;;5026049;28;20204;-78
2023/06/15 08:23:54;;;;;;;4.57;3.65;;;20.30;1.00;;;;;;5025119;28;20314;-79
2023/06/15 08:26:21;;;;;;;9.57;4.20;;;20.30;1.00;;;;;;5025315;28;20211;-78
2023/06/15 08:28:48;;;;;;;8.55;3.72;;;20.30;1.00;;;;;;5027780;28;20817;-78
2023/06/15 08:31:15;;;;;;;9.68;3.92;;;20.20;1.00;;;;;;5039942;28;20216;-78
2023/06/15 08:33:42;;;;;;;12.07;3.83;;;20.30;1.00;;;;;;5024104;28;20220;-79
2023/06/15 08:36:11;;;;;;;4.65;3.35;;;20.40;99.90;;;;;;5024062;28;20247;-79
2023/06/15 08:38:37;;;;;;;7.97;3.90;;;20.30;1.00;;;;;;5023231;28;20824;-78
2023/06/15 08:41:05;;;;;;;8.30;4.10;;;20.30;99.90;;;;;;5024487;28;20204;-79
2023/06/15 08:43:33;;;;;;;8.23;3.97;;;20.60;1.00;;;;;;5040169;28;20227;-78
2023/06/15 08:46:02;;;;;;;8.57;4.25;;;20.90;1.00;;;;;;5042713;28;20215;-79
2023/06/15 08:48:33;;;;;;;9.80;3.67;;;21.00;99.90;;;;;;5025949;28;20238;-78
2023/06/15 08:51:00;;;;;;;5.78;4.00;;;21.20;96.60;;;;;;5024042;28;20216;-79
2023/06/15 08:53:30;;;;;;;7.78;3.40;;;21.30;99.90;;;;;;5022855;28;20217;-79
2023/06/15 08:55:57;;;;;;;6.20;3.45;;;21.20;99.90;;;;;;5024159;28;20208;-79
2023/06/15 08:58:24;;;;;;;11.30;3.75;;;21.50;1.00;;;;;;5022340;28;20196;-78
2023/06/15 09:00:54;;;;;;;4.75;3.03;;;21.50;1.00;;;;;;5024927;28;20268;-78
2023/06/15 09:03:23;;;;;;;7.47;3.88;;;22.10;1.00;;;;;;5023309;28;20244;-79
2023/06/15 09:05:50;;;;;;;6.15;3.85;;;22.20;99.90;;;;;;5024056;28;20212;-79
2023/06/15 09:08:16;;;;;;;8.10;3.17;;;22.50;1.00;;;;;;5022465;28;20253;-78
2023/06/15 09:10:45;;;;;;;6.97;3.15;;;22.60;1.00;;;;;;5021505;28;20223;-79
2023/06/15 09:13:16;;;;;;;4.63;3.20;;;22.60;99.90;;;;;;5022138;28;20267;-79
2023/06/15 09:15:50;;;;;;;7.88;3.40;;;22.90;1.00;;;;;;5022220;28;20192;-77
2023/06/15 09:18:17;;;;;;;7.88;3.50;;;23.20;7.00;;;;;;5066658;27;20201;-78
2023/06/15 09:20:44;;;;;;;6.90;3.10;;;23.90;1.00;;;;;;5148223;27;20222;-78
2023/06/15 09:23:13;;;;;;;6.80;3.17;;;23.70;1.00;;;;;;5146726;27;20211;-78
2023/06/15 09:25:41;;;;;;;6.45;3.30;;;23.90;1.00;;;;;;5145290;27;20204;-79
2023/06/15 09:28:09;;;;;;;7.70;3.78;;;24.20;1.00;;;;;;5147183;27;20265;-79
2023/06/15 09:30:37;;;;;;;5.70;3.15;;;24.20;1.00;;;;;;5145715;27;20226;-78
2023/06/15 09:33:12;;;;;;;9.25;3.47;;;23.90;1.00;;;;;;5095714;27;20271;-78
2023/06/15 09:35:55;;;;;;;4.20;3.30;;;23.80;1.00;;;;;;5041428;28;20217;-79
2023/06/15 09:38:22;;;;;;;3.25;2.95;;;23.60;1.00;;;;;;5025482;28;20595;-78
2023/06/15 09:40:49;;;;;;;5.30;3.10;;;24.10;1.00;;;;;;5021477;28;20201;-79
2023/06/15 09:43:18;;;;;;;6.05;3.03;;;24.10;1.00;;;;;;5028849;28;20267;-77
2023/06/15 09:45:52;;;;;;;3.95;3.55;;;24.40;1.00;;;;;;5029548;28;20237;-79
2023/06/15 09:48:19;;;;;;;4.32;3.30;;;24.10;99.90;;;;;;5025210;28;20247;-79
2023/06/15 09:50:50;;;;;;;4.90;3.60;;;23.90;1.00;;;;;;5022019;28;20208;-77
2023/06/15 09:53:18;;;;;;;5.20;3.47;;;24.00;99.90;;;;;;5022752;28;20196;-79
2023/06/15 09:55:47;;;;;;;4.45;3.35;;;25.20;99.90;;;;;;5021169;28;20652;-78
2023/06/15 09:58:13;;;;;;;8.32;3.40;;;24.90;99.90;;;;;;5023301;28;20207;-79
2023/06/15 10:00:43;;;;;;;6.10;3.38;;;25.10;1.00;;;;;;5023172;28;20212;-78
2023/06/15 10:03:14;;;;;;;4.40;2.75;;;25.00;1.00;;;;;;5020410;28;20216;-78
2023/06/15 10:05:43;;;;;;;4.78;3.30;;;24.80;1.00;;;;;;5020531;28;20275;-78
2023/06/15 10:08:12;;;;;;;5.25;3.20;;;24.70;1.00;;;;;;5034469;28;20262;-78
2023/06/15 10:10:43;;;;;;;7.97;3.20;;;24.80;1.00;;;;;;5019817;28;20226;-78
2023/06/15 10:13:14;;;;;;;9.10;3.28;;;24.90;1.00;;;;;;5021095;28;20208;-78
2023/06/15 10:15:48;;;;;;;6.10;3.35;;;25.50;99.90;;;;;;5022023;28;20204;-77
2023/06/15 10:18:16;;;;;;;4.78;2.90;;;25.40;99.90;;;;;;5034426;28;20209;-77
2023/06/15 10:20:43;;;;;;;5.55;3.25;;;25.10;99.90;;;;;;5036701;28;20207;-78
2023/06/15 10:23:14;;;;;;;4.18;3.42;;;25.30;37.00;;;;;;5025738;28;20215;-77
2023/06/15 10:25:43;;;;;;;3.90;3.33;;;25.00;1.00;;;;;;5031463;28;20211;-78
2023/06/15 10:28:11;;;;;;;5.15;3.33;;;24.80;1.00;;;;;;5039574;28;20215;-78
2023/06/15 10:30:46;;;;;;;4.45;3.53;;;25.10;1.00;;;;;;5039184;28;20207;-78
2023/06/15 10:33:20;;;;;;;4.88;3.58;;;25.50;99.90;;;;;;5038764;28;20663;-78
2023/06/15 10:35:54;;;;;;;6.28;3.80;;;25.10;1.00;;;;;;5039723;28;20606;-78
2023/06/15 10:38:28;;;;;;;5.43;3.63;;;24.80;1.00;;;;;;5042237;28;20271;-78
2023/06/15 10:40:56;;;;;;;4.60;3.50;;;25.90;1.00;;;;;;5039807;28;20188;-79
2023/06/15 10:43:27;;;;;;;6.32;3.28;;;25.10;1.00;;;;;;5039051;28;20232;-78
2023/06/15 10:45:55;;;;;;;8.05;3.63;;;25.30;1.00;;;;;;5028690;28;20216;-79
2023/06/15 10:48:24;;;;;;;5.63;3.28;;;24.00;99.90;;;;;;5019521;28;20243;-78
2023/06/15 10:50:52;;;;;;;5.85;3.60;;;23.50;1.00;;;;;;5031942;27;20207;-78
2023/06/15 10:53:24;;;;;;;5.57;3.40;;;23.70;1.00;;;;;;5062318;27;20272;-79
2023/06/15 10:55:55;;;;;;;6.47;3.70;;;23.80;1.00;;;;;;5040202;28;20203;-77
2023/06/15 10:58:22;;;;;;;4.13;3.53;;;24.20;1.00;;;;;;5042953;28;20184;-78
2023/06/15 11:01:08;;;;;;;4.00;3.13;;;25.20;99.90;;;;;;5039889;28;20203;-78
2023/06/15 11:03:36;;;;;;;25.50;4.18;;;25.10;99.90;;;;;;5038166;28;20224;-79
2023/06/15 11:06:06;;;;;;;8.23;3.53;;;24.60;99.90;;;;;;5039216;28;20222;-78
2023/06/15 11:08:41;;;;;;;3.65;3.30;;;24.60;99.90;;;;;;5040720;28;20223;-79
2023/06/15 11:11:10;;;;;;;5.20;3.28;;;25.80;99.90;;;;;;5039410;28;20203;-78
2023/06/15 11:13:55;;;;;;;5.25;3.40;;;25.70;1.00;;;;;;5039613;28;20224;-77
2023/06/15 11:16:27;;;;;;;7.05;3.30;;;25.50;1.00;;;;;;5040227;28;20200;-78
2023/06/15 11:18:58;;;;;;;6.65;3.78;;;25.50;1.00;;;;;;5040099;28;20180;-79
2023/06/15 11:21:28;;;;;;;5.00;3.50;;;25.40;1.00;;;;;;5036858;28;20200;-80
2023/06/15 11:23:57;;;;;;;4.50;3.65;;;25.30;1.00;;;;;;5024276;27;20250;-79
2023/06/15 11:26:28;;;;;;;4.07;3.25;;;25.20;1.00;;;;;;5017289;28;20204;-78
2023/06/15 11:28:57;;;;;;;4.65;3.58;;;25.10;1.00;;;;;;5016595;28;20231;-79
2023/06/15 11:31:27;;;;;;;7.35;3.22;;;24.70;1.00;;;;;;5015735;28;20211;-78
2023/06/15 11:33:54;;;;;;;7.45;3.97;;;25.00;1.00;;;;;;5014557;28;20216;-80
2023/06/15 11:36:21;;;;;;;6.22;3.80;;;24.80;93.20;;;;;;5025290;28;20200;-79
2023/06/15 11:38:48;;;;;;;6.90;3.60;;;24.50;1.00;;;;;;5022597;28;20312;-78
2023/06/15 11:41:15;;;;;;;5.78;3.80;;;24.80;1.00;;;;;;5017797;28;20200;-78
2023/06/15 11:43:45;;;;;;;5.10;3.42;;;25.30;1.00;;;;;;5015356;28;20224;-78
2023/06/15 11:46:13;;;;;;;3.78;3.45;;;25.50;1.00;;;;;;5015742;28;20196;-78
2023/06/15 11:48:43;;;;;;;5.72;3.50;;;25.30;1.00;;;;;;5027547;28;20583;-80
2023/06/15 11:51:10;;;;;;;5.03;4.00;;;25.60;1.00;;;;;;5020884;28;20208;-79
2023/06/15 11:53:39;;;;;;;6.88;4.07;;;25.40;1.00;;;;;;5016052;28;20230;-78
2023/06/15 11:56:08;;;;;;;5.47;3.70;;;25.60;1.00;;;;;;5015855;28;20215;-79
2023/06/15 11:58:35;;;;;;;12.60;4.03;;;26.00;1.00;;;;;;5017265;28;20204;-80
2023/06/15 12:01:04;;;;;;;5.25;3.45;;;27.10;1.00;;;;;;5014157;28;20208;-80
2023/06/15 12:03:36;;;;;;;4.28;3.53;;;25.70;1.00;;;;;;5015883;28;20248;-79
2023/06/15 12:06:04;;;;;;;6.63;3.55;;;26.00;1.00;;;;;;5096198;27;20240;-78
2023/06/15 12:08:32;;;;;;;5.05;3.55;;;25.70;1.00;;;;;;5074130;28;20210;-79
2023/06/15 12:11:00;;;;;;;3.85;3.35;;;25.70;1.00;;;;;;5036209;28;20235;-79
2023/06/15 12:13:27;;;;;;;6.55;3.65;;;25.70;1.00;;;;;;5019835;28;20228;-80
2023/06/15 12:15:54;;;;;;;6.47;3.75;;;25.80;1.00;;;;;;5015335;28;20211;-79
2023/06/15 12:18:20;;;;;;;4.75;3.67;;;26.80;1.00;;;;;;5015675;28;20253;-80
2023/06/15 12:20:48;;;;;;;5.22;3.90;;;27.60;1.00;;;;;;5014533;28;20211;-79
2023/06/15 12:23:30;;;;;;;5.75;3.40;;;26.50;1.00;;;;;;5014734;28;20278;-79
2023/06/15 12:25:57;;;;;;;6.18;3.70;;;26.60;1.00;;;;;;5014998;28;20208;-79
2023/06/15 12:28:26;;;;;;;8.25;4.15;;;25.90;1.00;;;;;;5014204;28;20239;-79
2023/06/15 12:30:58;;;;;;;7.13;4.00;;;25.50;1.00;;;;;;5014935;28;20315;-79
2023/06/15 12:33:27;;;;;;;5.63;3.90;;;25.50;1.00;;;;;;5015222;28;20235;-79
2023/06/15 12:35:54;;;;;;;4.97;3.50;;;25.20;99.90;;;;;;5016208;28;20263;-79
2023/06/15 12:38:23;;;;;;;5.88;3.85;;;24.70;99.90;;;;;;5016071;28;20263;-80
2023/06/15 12:40:53;;;;;;;4.18;3.78;;;24.50;99.90;;;;;;5016033;28;20269;-79
2023/06/15 12:43:20;;;;;;;5.32;3.60;;;24.50;1.00;;;;;;5013709;28;20224;-80
2023/06/15 12:45:47;;;;;;;4.93;3.90;;;24.20;99.90;;;;;;5016591;28;20205;-79
2023/06/15 12:48:14;;;;;;;8.10;4.10;;;24.40;1.00;;;;;;5033416;28;20303;-80
2023/06/15 12:50:42;;;;;;;3.67;3.38;;;24.50;1.00;;;;;;5036781;28;20216;-80
2023/06/15 12:53:09;;;;;;;7.57;3.47;;;24.60;1.00;;;;;;5037694;28;20232;-80